Time;durP1;ratioP1;P1;durP2;ratioP2;P2;SDS_P1;SDS_P2;PMS_P1;PMS_P2;Temp;Humidity;BMP_temperature;BMP_pressure;BME280_temperature;BME280_humidity;BME280_pressure;Samples;Min_cycle;Max_cycle;Signal;HPM_P1;HPM_P2
2022/05/09 00:02:21;;;;;;;14.48;6.70;;;;;;;10.26;98.82;101091.81;4989933;28;20092;-79
2022/05/09 00:04:47;;;;;;;11.27;7.07;;;;;;;10.10;99.15;101079.00;4990161;28;20688;-79
2022/05/09 00:07:12;;;;;;;9.85;6.28;;;;;;;10.11;99.00;101089.38;5000753;28;20492;-80
2022/05/09 00:09:38;;;;;;;12.23;7.45;;;;;;;10.01;99.02;101089.75;5010335;28;20041;-79
2022/05/09 00:12:04;;;;;;;11.57;6.63;;;;;;;10.00;98.95;101082.81;4997358;28;20501;-80
2022/05/09 00:14:29;;;;;;;12.15;6.70;;;;;;;9.96;98.78;101074.03;4989792;28;20505;-82
2022/05/09 00:16:56;;;;;;;11.40;6.13;;;;;;;9.91;99.25;101079.81;4990171;28;20493;-79
2022/05/09 00:19:22;;;;;;;14.10;6.43;;;;;;;9.70;100.00;101055.56;4989526;28;20471;-81
2022/05/09 00:21:50;;;;;;;11.63;6.80;;;;;;;9.83;99.49;101093.19;4973055;28;20121;-81
2022/05/09 00:24:17;;;;;;;14.20;6.50;;;;;;;9.72;100.00;101081.47;4991569;28;20026;-81
2022/05/09 00:26:44;;;;;;;15.30;7.40;;;;;;;9.64;100.00;101075.88;4993193;28;20030;-80
2022/05/09 00:29:11;;;;;;;11.95;6.75;;;;;;;9.42;100.00;101057.56;4991523;28;20026;-80
2022/05/09 00:31:38;;;;;;;14.57;6.65;;;;;;;9.42;100.00;101073.03;4993957;28;20440;-81
2022/05/09 00:34:04;;;;;;;14.57;7.80;;;;;;;9.28;100.00;101051.72;4993928;28;20026;-80
2022/05/09 00:36:31;;;;;;;10.38;6.80;;;;;;;9.22;100.00;101047.13;4994109;28;20497;-78
2022/05/09 00:38:58;;;;;;;14.95;6.72;;;;;;;9.41;100.00;101085.06;4993533;28;20026;-81
2022/05/09 00:41:40;;;;;;;13.98;7.47;;;;;;;9.16;100.00;101023.63;4975609;28;20133;-83
2022/05/09 00:44:26;;;;;;;14.60;7.32;;;;;;;9.41;100.00;101086.72;4993684;28;20474;-79
2022/05/09 00:46:54;;;;;;;17.48;7.57;;;;;;;9.37;100.00;101088.25;4993986;28;20045;-79
2022/05/09 00:49:45;;;;;;;11.60;7.20;;;;;;;9.33;100.00;101082.09;4993787;28;20085;-79
2022/05/09 00:52:25;;;;;;;14.68;7.03;;;;;;;9.16;100.00;101072.56;4993581;28;20029;-78
2022/05/09 00:54:56;;;;;;;13.73;7.03;;;;;;;9.17;100.00;101082.97;4993748;28;20019;-79
2022/05/09 00:57:40;;;;;;;16.77;8.43;;;;;;;9.04;100.00;101065.09;4994021;28;20388;-79
2022/05/09 01:00:12;;;;;;;16.17;7.25;;;;;;;8.89;100.00;101063.47;4993587;28;20113;-79
2022/05/09 01:02:40;;;;;;;15.80;8.20;;;;;;;8.96;100.00;101079.25;4994177;28;20101;-79
2022/05/09 01:05:07;;;;;;;15.77;8.50;;;;;;;8.88;100.00;101077.16;4993656;28;20027;-81
2022/05/09 01:07:33;;;;;;;20.00;8.40;;;;;;;8.82;100.00;101083.66;4993577;28;20136;-79
2022/05/09 01:09:59;;;;;;;25.70;9.57;;;;;;;8.55;100.00;101059.09;4993110;28;20446;-80
2022/05/09 01:12:32;;;;;;;22.25;9.73;;;;;;;8.53;100.00;101083.84;4991807;28;20034;-80
2022/05/09 01:15:01;;;;;;;45.85;10.27;;;;;;;8.28;100.00;101086.72;4992891;28;20040;-79
2022/05/09 01:17:27;;;;;;;52.42;12.00;;;;;;;8.16;100.00;101084.34;4993106;28;20639;-78
2022/05/09 01:19:55;;;;;;;30.52;10.88;;;;;;;8.00;100.00;101062.00;4992922;28;20050;-78
2022/05/09 01:22:32;;;;;;;45.10;10.80;;;;;;;8.07;100.00;101069.28;5008035;28;20474;-79
2022/05/09 01:25:02;;;;;;;39.25;10.68;;;;;;;8.22;100.00;101073.50;5012926;28;20033;-82
2022/05/09 01:27:31;;;;;;;45.17;11.57;;;;;;;8.14;100.00;101044.78;5012965;28;20033;-80
2022/05/09 01:30:20;;;;;;;23.17;11.25;;;;;;;8.33;100.00;101084.41;5002270;28;20041;-79
2022/05/09 01:32:54;;;;;;;29.48;10.75;;;;;;;8.22;100.00;101030.69;4975688;28;20030;-79
2022/05/09 01:35:47;;;;;;;22.20;11.45;;;;;;;8.47;100.00;101072.34;4993335;28;20141;-78
2022/05/09 01:38:27;;;;;;;26.02;10.68;;;;;;;8.54;100.00;101071.88;4993005;28;20027;-79
2022/05/09 01:40:52;;;;;;;18.30;10.27;;;;;;;8.38;100.00;101046.94;4992063;28;20030;-78
2022/05/09 01:43:38;;;;;;;15.82;9.63;;;;;;;8.49;100.00;101066.47;4992958;28;20027;-77
2022/05/09 01:46:07;;;;;;;16.63;8.88;;;;;;;8.60;100.00;101066.16;4992669;28;20436;-78
2022/05/09 01:51:17;;;;;;;15.32;9.80;;;;;;;8.44;100.00;101037.00;4992747;28;20044;-78
2022/05/09 01:53:51;;;;;;;43.88;11.77;;;;;;;8.63;100.00;101071.50;4992393;28;20034;-78
2022/05/09 01:56:25;;;;;;;52.63;12.93;;;;;;;8.37;100.00;101030.63;4992764;28;20038;-78
2022/05/09 01:58:51;;;;;;;56.47;12.90;;;;;;;8.42;100.00;101043.72;4992325;28;20034;-78
2022/05/09 02:01:18;;;;;;;24.38;12.93;;;;;;;8.42;100.00;101042.06;4992363;28;20539;-79
2022/05/09 02:03:45;;;;;;;21.42;11.88;;;;;;;8.80;100.00;101077.53;4992363;28;20035;-79
2022/05/09 02:06:11;;;;;;;22.48;14.27;;;;;;;8.85;100.00;101071.84;4992766;28;20034;-80
2022/05/09 02:08:38;;;;;;;26.30;13.35;;;;;;;8.84;100.00;101062.34;4992127;28;20077;-81
2022/05/09 02:11:04;;;;;;;34.45;14.20;;;;;;;8.87;100.00;101052.22;4974995;28;20034;-81
2022/05/09 02:13:29;;;;;;;25.27;14.13;;;;;;;8.94;100.00;101061.13;4992238;28;20401;-80
2022/05/09 02:15:55;;;;;;;25.15;12.90;;;;;;;9.09;100.00;101081.66;4992097;28;20034;-81
2022/05/09 02:18:20;;;;;;;24.30;13.65;;;;;;;8.92;100.00;101056.72;4991895;28;20093;-81
2022/05/09 02:20:46;;;;;;;23.23;13.35;;;;;;;8.95;100.00;101039.75;4992139;28;20416;-79
2022/05/09 02:23:13;;;;;;;22.38;13.32;;;;;;;9.04;100.00;101055.66;4992212;28;20031;-80
2022/05/09 02:25:40;;;;;;;23.05;11.95;;;;;;;9.00;100.00;101052.88;4992142;28;20030;-79
2022/05/09 02:28:09;;;;;;;17.42;11.32;;;;;;;8.98;100.00;101063.06;4992188;28;20579;-80
2022/05/09 02:30:36;;;;;;;20.88;11.23;;;;;;;8.85;100.00;101051.25;4991845;28;20031;-79
2022/05/09 02:33:02;;;;;;;16.55;10.73;;;;;;;8.92;100.00;101049.00;4992972;28;20061;-77
2022/05/09 02:35:28;;;;;;;15.32;9.32;;;;;;;8.95;100.00;101031.09;4991630;28;20034;-80
2022/05/09 02:37:54;;;;;;;16.00;7.43;;;;;;;8.87;100.00;101021.31;4991681;28;20045;-80
2022/05/09 02:40:20;;;;;;;12.38;6.47;;;;;;;8.98;100.00;101039.88;4992321;28;20105;-79
2022/05/09 02:42:45;;;;;;;11.93;7.40;;;;;;;9.15;100.00;101076.84;4991961;28;20054;-80
2022/05/09 02:45:12;;;;;;;10.85;6.22;;;;;;;9.25;100.00;101079.91;4991690;28;20050;-79
2022/05/09 02:47:40;;;;;;;13.35;6.85;;;;;;;9.13;100.00;101059.53;4991627;28;20064;-81
2022/05/09 02:50:07;;;;;;;14.65;6.78;;;;;;;9.15;100.00;101071.69;4991339;28;20477;-81
2022/05/09 02:52:32;;;;;;;31.05;7.80;;;;;;;8.95;100.00;101068.06;4991855;28;20026;-80
2022/05/09 02:54:58;;;;;;;46.50;8.57;;;;;;;8.94;100.00;101086.03;4991902;28;20585;-80
2022/05/09 02:57:23;;;;;;;52.40;8.98;;;;;;;8.49;100.00;101024.41;4991929;28;20053;-80
2022/05/09 02:59:49;;;;;;;32.58;8.05;;;;;;;8.47;100.00;101039.75;4991603;28;20464;-80
2022/05/09 03:02:14;;;;;;;45.63;8.00;;;;;;;8.79;100.00;101094.69;4991291;28;20114;-80
2022/05/09 03:04:40;;;;;;;36.42;8.77;;;;;;;8.67;100.00;101069.19;4991095;28;20481;-81
2022/05/09 03:07:11;;;;;;;24.15;9.55;;;;;;;8.67;100.00;101064.03;4991527;28;20026;-81
2022/05/09 03:09:37;;;;;;;26.90;8.43;;;;;;;8.88;100.00;101099.44;4958236;28;20069;-79
2022/05/09 03:12:04;;;;;;;35.28;8.75;;;;;;;8.88;100.00;101084.91;4989976;28;20118;-79
2022/05/09 03:14:31;;;;;;;28.88;8.43;;;;;;;8.85;100.00;101094.13;5002249;28;20101;-78
2022/05/09 03:16:57;;;;;;;24.92;8.48;;;;;;;8.93;100.00;101108.28;4990711;28;20444;-78
2022/05/09 03:19:24;;;;;;;28.58;7.95;;;;;;;8.95;100.00;101109.28;4997674;28;20495;-78
2022/05/09 03:21:50;;;;;;;16.67;8.35;;;;;;;8.81;100.00;101076.72;4994164;28;20126;-78
2022/05/09 03:24:16;;;;;;;26.40;7.75;;;;;;;8.81;100.00;101075.06;4990623;28;20117;-79
2022/05/09 03:26:41;;;;;;;26.70;8.50;;;;;;;8.93;100.00;101110.88;4994458;28;20042;-80
2022/05/09 03:29:07;;;;;;;37.65;10.00;;;;;;;8.95;100.00;101111.84;4991046;28;20109;-79
2022/05/09 03:31:32;;;;;;;37.47;9.65;;;;;;;8.82;100.00;101110.31;4992403;28;20030;-78
2022/05/09 03:33:57;;;;;;;34.58;8.98;;;;;;;8.77;100.00;101111.72;4990748;28;20027;-79
2022/05/09 03:36:23;;;;;;;43.10;10.60;;;;;;;8.69;100.00;101092.41;4990286;28;20034;-80
2022/05/09 03:38:49;;;;;;;35.95;10.55;;;;;;;8.78;100.00;101122.91;4991224;28;20512;-79
2022/05/09 03:41:14;;;;;;;29.35;11.80;;;;;;;8.86;100.00;101119.97;4990921;28;20030;-79
2022/05/09 03:43:40;;;;;;;20.55;10.60;;;;;;;8.90;100.00;101114.16;4990956;28;20030;-80
2022/05/09 03:46:05;;;;;;;26.05;11.70;;;;;;;9.18;100.00;101136.28;4991142;28;20039;-79
2022/05/09 03:48:30;;;;;;;31.63;12.02;;;;;;;9.26;100.00;101123.78;4991062;28;20040;-75
2022/05/09 03:50:56;;;;;;;28.50;12.02;;;;;;;9.27;100.00;101124.66;4989585;28;20031;-80
2022/05/09 03:53:23;;;;;;;20.40;10.45;;;;;;;9.44;100.00;101128.13;4991083;28;20501;-78
2022/05/09 03:55:50;;;;;;;18.67;10.50;;;;;;;9.35;100.00;101097.63;4991061;28;20027;-79
2022/05/09 03:58:15;;;;;;;18.00;10.68;;;;;;;9.46;100.00;101096.47;4990778;28;20113;-80
2022/05/09 04:00:41;;;;;;;19.23;10.88;;;;;;;9.82;100.00;101118.88;4990254;28;20080;-79
2022/05/09 04:03:07;;;;;;;13.48;7.38;;;;;;;9.81;100.00;101107.69;4990550;28;20034;-79
2022/05/09 04:05:34;;;;;;;12.15;6.78;;;;;;;9.94;100.00;101116.91;4994295;28;20419;-79
2022/05/09 04:08:01;;;;;;;9.00;5.68;;;;;;;10.03;100.00;101119.97;4994351;28;20588;-80
2022/05/09 04:10:30;;;;;;;8.07;5.10;;;;;;;10.02;100.00;101110.47;4976780;28;20026;-81
2022/05/09 04:12:57;;;;;;;8.30;5.57;;;;;;;10.06;100.00;101126.09;4994378;28;20500;-80
2022/05/09 04:18:08;;;;;;;9.80;5.18;;;;;;;10.26;100.00;101133.09;4994553;28;20049;-78
2022/05/09 04:20:35;;;;;;;21.67;12.23;;;;;;;10.18;100.00;101129.25;4974883;28;20058;-78
2022/05/09 04:23:01;;;;;;;23.27;12.68;;;;;;;9.86;100.00;101087.31;4974865;28;20058;-79
2022/05/09 04:25:31;;;;;;;24.45;12.30;;;;;;;10.10;100.00;101121.16;4974979;28;20089;-82
2022/05/09 04:27:57;;;;;;;23.48;12.55;;;;;;;10.10;100.00;101139.22;4974730;28;20065;-80
2022/05/09 04:30:23;;;;;;;21.48;12.57;;;;;;;9.93;100.00;101119.44;4975671;28;20086;-79
2022/05/09 04:32:49;;;;;;;26.48;13.57;;;;;;;9.95;100.00;101133.31;4974626;28;20418;-79
2022/05/09 04:35:19;;;;;;;25.17;13.85;;;;;;;9.98;100.00;101143.75;4974765;28;20560;-79
2022/05/09 04:37:49;;;;;;;22.25;14.10;;;;;;;9.88;100.00;101143.31;4987127;28;20026;-79
2022/05/09 04:40:24;;;;;;;21.85;13.63;;;;;;;9.61;100.00;101136.72;4994136;28;20030;-79
2022/05/09 04:42:50;;;;;;;24.55;13.32;;;;;;;9.52;100.00;101137.13;4993641;28;20038;-80
2022/05/09 04:45:16;;;;;;;24.75;13.43;;;;;;;9.51;100.00;101140.53;4976344;28;20034;-80
2022/05/09 04:47:42;;;;;;;27.85;13.65;;;;;;;9.59;100.00;101130.63;4976461;28;20034;-78
2022/05/09 04:50:11;;;;;;;25.85;15.30;;;;;;;9.59;100.00;101131.50;4976126;28;20034;-78
2022/05/09 04:52:36;;;;;;;25.65;14.50;;;;;;;9.74;100.00;101139.13;4993446;28;20062;-77
2022/05/09 04:55:03;;;;;;;27.70;14.57;;;;;;;9.69;100.00;101117.38;5008485;28;20555;-76
2022/05/09 04:57:28;;;;;;;29.13;14.80;;;;;;;9.82;100.00;101148.16;4983014;28;20031;-77
2022/05/09 04:59:54;;;;;;;26.63;15.32;;;;;;;9.85;100.00;101148.28;4979061;28;20411;-77
2022/05/09 05:02:19;;;;;;;29.17;16.00;;;;;;;9.73;100.00;101136.47;4990933;28;20381;-77
2022/05/09 05:04:45;;;;;;;26.33;15.25;;;;;;;9.80;100.00;101144.59;4987921;28;20022;-75
2022/05/09 05:07:10;;;;;;;27.30;15.40;;;;;;;9.86;100.00;101168.13;4989537;28;20042;-78
2022/05/09 05:09:36;;;;;;;28.02;16.23;;;;;;;9.87;100.00;101157.00;4991663;28;20523;-78
2022/05/09 05:12:03;;;;;;;29.08;16.15;;;;;;;9.93;100.00;101158.13;4993506;28;20022;-78
2022/05/09 05:14:29;;;;;;;32.97;18.85;;;;;;;10.04;100.00;101173.34;4961083;28;20416;-79
2022/05/09 05:17:00;;;;;;;33.70;17.20;;;;;;;10.04;100.00;101142.38;4987951;28;20030;-78
2022/05/09 05:19:37;;;;;;;28.48;15.68;;;;;;;10.18;100.00;101170.53;4987493;28;20050;-78
2022/05/09 05:22:04;;;;;;;26.20;15.20;;;;;;;10.18;100.00;101173.13;4989000;28;20027;-79
2022/05/09 05:24:34;;;;;;;27.20;16.48;;;;;;;10.24;100.00;101178.59;4992077;28;20026;-80
2022/05/09 05:27:00;;;;;;;22.52;13.88;;;;;;;10.15;100.00;101134.28;4991943;28;20085;-78
2022/05/09 05:29:26;;;;;;;28.70;15.88;;;;;;;10.23;100.00;101152.72;4974398;28;20027;-78
2022/05/09 05:32:15;;;;;;;21.02;13.10;;;;;;;10.38;100.00;101186.16;4967759;28;20409;-78
2022/05/09 05:34:40;;;;;;;25.67;14.83;;;;;;;10.17;100.00;101182.56;4967112;28;20166;-77
2022/05/09 05:37:06;;;;;;;23.15;14.48;;;;;;;10.11;100.00;101140.13;4967428;28;20357;-81
2022/05/09 05:39:34;;;;;;;26.30;13.93;;;;;;;10.36;100.00;101170.63;4969936;28;20027;-79
2022/05/09 05:41:59;;;;;;;24.42;14.48;;;;;;;10.42;100.00;101181.25;4967827;28;20045;-78
2022/05/09 05:44:25;;;;;;;25.67;14.40;;;;;;;10.39;100.00;101181.06;4952814;28;20117;-79
2022/05/09 05:46:50;;;;;;;51.85;19.23;;;;;;;10.34;100.00;101161.88;4968815;28;20039;-78
2022/05/09 05:49:16;;;;;;;23.90;13.55;;;;;;;10.57;100.00;101201.75;4968370;28;20027;-79
2022/05/09 05:51:41;;;;;;;24.05;13.65;;;;;;;10.36;100.00;101157.72;4949576;28;20042;-79
2022/05/09 05:54:07;;;;;;;23.50;13.68;;;;;;;10.64;100.00;101184.84;4967905;28;20026;-80
2022/05/09 05:56:36;;;;;;;22.45;13.07;;;;;;;10.70;100.00;101173.94;4968835;28;20030;-78
2022/05/09 05:59:01;;;;;;;21.15;14.88;;;;;;;10.70;100.00;101156.75;4964696;28;20050;-82
2022/05/09 06:01:26;;;;;;;23.63;15.43;;;;;;;10.82;100.00;101184.88;4967981;28;20074;-79
2022/05/09 06:03:52;;;;;;;29.55;18.00;;;;;;;10.63;100.00;101141.75;4985139;28;20049;-78
2022/05/09 06:06:17;;;;;;;23.13;15.65;;;;;;;10.68;100.00;101160.97;4990756;28;20014;-83
2022/05/09 06:08:44;;;;;;;20.65;11.73;;;;;;;10.97;100.00;101185.56;4990987;28;20029;-84
2022/05/09 06:11:10;;;;;;;18.95;13.63;;;;;;;11.06;100.00;101187.69;4990390;28;20029;-81
2022/05/09 06:13:36;;;;;;;16.10;12.10;;;;;;;11.04;100.00;101149.69;4990684;28;20026;-80
2022/05/09 06:16:02;;;;;;;17.85;10.60;;;;;;;11.00;100.00;101148.66;4973539;28;20022;-83
2022/05/09 06:18:27;;;;;;;15.25;10.57;;;;;;;11.20;100.00;101169.38;4990241;28;20042;-81
2022/05/09 06:20:53;;;;;;;19.30;11.25;;;;;;;11.38;100.00;101182.25;4990093;28;20485;-81
2022/05/09 06:23:18;;;;;;;23.17;11.90;;;;;;;11.54;100.00;101186.38;4988233;28;20041;-84
2022/05/09 06:25:46;;;;;;;17.10;11.70;;;;;;;11.58;100.00;101191.78;4970514;28;20125;-83
2022/05/09 06:28:18;;;;;;;18.42;12.93;;;;;;;11.54;100.00;101163.13;4986632;28;20046;-83
2022/05/09 06:30:44;;;;;;;18.98;12.60;;;;;;;11.65;100.00;101178.31;4990263;28;20030;-84
2022/05/09 06:33:10;;;;;;;19.58;12.75;;;;;;;11.75;100.00;101192.53;4988180;28;20027;-83
2022/05/09 06:35:46;;;;;;;16.25;12.30;;;;;;;11.81;100.00;101173.78;4987962;28;20082;-83
2022/05/09 06:38:17;;;;;;;18.90;12.38;;;;;;;11.56;100.00;101146.84;4989905;28;20027;-84
2022/05/09 06:40:43;;;;;;;18.38;11.52;;;;;;;11.67;100.00;101178.38;4990146;28;20034;-77
2022/05/09 06:43:09;;;;;;;17.10;11.48;;;;;;;11.80;100.00;101184.94;4991705;28;20116;-78
2022/05/09 06:45:34;;;;;;;16.05;11.50;;;;;;;11.93;100.00;101186.38;4991478;28;20444;-78
2022/05/09 06:48:01;;;;;;;14.68;10.68;;;;;;;12.08;100.00;101184.47;4991680;28;20026;-77
2022/05/09 06:50:29;;;;;;;13.23;9.93;;;;;;;12.26;100.00;101175.69;4991623;28;20038;-78
2022/05/09 06:52:55;;;;;;;14.18;9.43;;;;;;;12.39;100.00;101156.41;4990584;28;20508;-78
2022/05/09 06:55:21;;;;;;;13.38;9.32;;;;;;;12.64;100.00;101173.78;4991303;28;20061;-78
2022/05/09 06:57:49;;;;;;;14.38;9.05;;;;;;;12.86;100.00;101169.44;4990560;28;20492;-80
2022/05/09 07:00:18;;;;;;;13.68;8.45;;;;;;;12.94;100.00;101166.31;4973065;28;20049;-79
2022/05/09 07:02:43;;;;;;;15.23;8.70;;;;;;;13.07;100.00;101174.56;4991248;28;20062;-79
2022/05/09 07:05:11;;;;;;;11.45;8.18;;;;;;;13.33;100.00;101180.72;4990967;28;20064;-78
2022/05/09 07:07:36;;;;;;;10.02;6.70;;;;;;;13.50;98.42;101177.94;4989905;28;20023;-79
2022/05/09 07:10:03;;;;;;;9.85;6.72;;;;;;;13.68;97.45;101172.50;4990691;28;20018;-78
2022/05/09 07:12:29;;;;;;;10.70;6.55;;;;;;;13.86;95.66;101174.88;4990522;28;20057;-79
2022/05/09 07:14:55;;;;;;;11.95;6.60;;;;;;;13.91;96.46;101158.63;4990631;28;20492;-78
2022/05/09 07:17:20;;;;;;;11.38;5.68;;;;;;;14.00;95.89;101150.25;4990353;28;20416;-78
2022/05/09 07:19:46;;;;;;;14.82;6.35;;;;;;;14.18;93.83;101167.28;4990924;28;20112;-79
2022/05/09 07:22:12;;;;;;;18.25;6.63;;;;;;;14.17;93.43;101166.41;4990621;28;20049;-78
2022/05/09 07:24:37;;;;;;;10.38;6.28;;;;;;;14.23;95.00;101168.31;4973465;28;20023;-78
2022/05/09 07:27:03;;;;;;;7.30;5.90;;;;;;;14.13;93.85;101150.66;4980039;28;20022;-78
2022/05/09 07:29:29;;;;;;;9.50;5.32;;;;;;;14.21;93.43;101154.41;4983161;28;20037;-77
2022/05/09 07:31:54;;;;;;;8.55;5.32;;;;;;;14.34;92.94;101166.06;4997515;28;20117;-77
2022/05/09 07:34:20;;;;;;;9.68;5.18;;;;;;;14.54;89.55;101171.91;4985734;28;20088;-77
2022/05/09 07:36:46;;;;;;;11.32;4.60;;;;;;;14.35;88.98;101152.25;4986171;28;20062;-77
2022/05/09 07:39:11;;;;;;;7.18;4.38;;;;;;;14.56;90.13;101163.34;4982438;28;20031;-79
2022/05/09 07:41:37;;;;;;;10.77;4.82;;;;;;;14.62;89.47;101172.19;4989136;28;20026;-78
2022/05/09 07:44:02;;;;;;;10.80;5.25;;;;;;;14.68;90.13;101151.63;4989763;28;20031;-78
2022/05/09 07:46:28;;;;;;;9.82;5.20;;;;;;;14.87;88.68;101153.06;4994539;28;20038;-78
2022/05/09 07:48:53;;;;;;;7.53;4.80;;;;;;;15.04;89.68;101145.75;4994410;28;20026;-78
2022/05/09 07:51:19;;;;;;;10.55;4.75;;;;;;;15.22;91.56;101153.22;4992403;28;20535;-78
2022/05/09 07:53:45;;;;;;;8.55;5.03;;;;;;;15.42;88.30;101163.31;4993685;28;20034;-78
2022/05/09 07:56:11;;;;;;;6.68;4.35;;;;;;;15.28;85.93;101155.13;4991054;28;20133;-77
2022/05/09 07:58:36;;;;;;;9.55;5.05;;;;;;;15.03;86.31;101155.28;4996684;28;20113;-78
2022/05/09 08:01:03;;;;;;;10.88;5.75;;;;;;;14.96;90.38;101168.91;4978941;28;20043;-78
2022/05/09 08:03:32;;;;;;;14.30;5.00;;;;;;;15.23;89.11;101160.19;4970946;28;20127;-79
2022/05/09 08:05:59;;;;;;;6.75;4.30;;;;;;;15.31;86.13;101139.59;4970684;28;20150;-80
2022/05/09 08:08:28;;;;;;;9.50;4.72;;;;;;;15.01;85.58;101071.13;4954452;28;20146;-84
2022/05/09 08:10:56;;;;;;;6.07;3.27;;;;;;;15.66;85.04;101158.78;4970816;28;20031;-83
2022/05/09 08:13:22;;;;;;;10.13;3.65;;;;;;;15.53;84.67;101123.72;4970708;28;20027;-81
2022/05/09 08:15:48;;;;;;;5.78;3.40;;;;;;;15.76;84.92;101128.66;4972218;28;20042;-82
2022/05/09 08:18:14;;;;;;;8.40;3.35;;;;;;;15.99;85.13;101137.09;4971591;28;20104;-83
2022/05/09 08:20:43;;;;;;;7.50;3.28;;;;;;;16.23;82.65;101135.94;4970853;28;20613;-79
2022/05/09 08:23:13;;;;;;;8.80;3.22;;;;;;;16.42;80.41;101159.84;4970654;28;20038;-79
2022/05/09 08:25:42;;;;;;;8.63;3.78;;;;;;;16.44;78.71;101150.34;4976826;28;20038;-79
2022/05/09 08:28:08;;;;;;;7.10;3.30;;;;;;;16.49;79.30;101140.91;4976088;28;20035;-80
2022/05/09 08:30:36;;;;;;;6.40;2.90;;;;;;;16.49;79.67;101120.06;4972204;28;20058;-79
2022/05/09 08:33:06;;;;;;;7.57;2.67;;;;;;;16.89;77.52;101165.28;4973050;28;20022;-80
2022/05/09 08:35:33;;;;;;;8.43;2.80;;;;;;;16.72;76.31;101115.34;4973078;28;20026;-78
2022/05/09 08:37:59;;;;;;;8.02;2.63;;;;;;;16.90;77.43;101151.41;4972254;28;20208;-80
2022/05/09 08:40:53;;;;;;;7.63;2.90;;;;;;;16.86;73.61;101128.72;4972463;28;20118;-80
2022/05/09 08:43:45;;;;;;;8.30;2.95;;;;;;;17.16;73.54;101153.72;4973091;28;20100;-80
2022/05/09 08:46:30;;;;;;;7.60;3.05;;;;;;;17.22;74.30;101151.25;4910236;29;20589;-79
2022/05/09 08:49:11;;;;;;;6.80;2.08;;;;;;;17.26;67.79;101145.22;4910375;29;20132;-79
2022/05/09 08:51:46;;;;;;;11.57;2.60;;;;;;;17.42;70.85;101149.03;4911946;29;20050;-78
2022/05/09 08:54:20;;;;;;;5.40;2.47;;;;;;;17.57;69.99;101132.78;4912816;29;20036;-79
2022/05/09 08:56:48;;;;;;;4.28;2.05;;;;;;;17.33;62.41;101088.81;4911328;29;20036;-79
2022/05/09 08:59:23;;;;;;;6.60;2.00;;;;;;;17.78;63.88;101144.47;4913170;29;20036;-79
2022/05/09 09:01:58;;;;;;;7.20;2.00;;;;;;;17.61;63.15;101124.16;4914175;29;20132;-79
2022/05/09 09:04:29;;;;;;;7.20;2.60;;;;;;;17.84;66.67;101143.69;4914305;29;20132;-79
2022/05/09 09:07:09;;;;;;;7.15;2.30;;;;;;;18.00;65.28;101139.66;4914719;29;20040;-79
2022/05/09 09:10:10;;;;;;;5.72;2.30;;;;;;;18.14;65.17;101143.38;4912256;29;20434;-78
2022/05/09 09:12:43;;;;;;;5.45;2.17;;;;;;;18.26;67.85;101140.97;4912443;29;20075;-78
2022/05/09 09:15:18;;;;;;;5.88;1.92;;;;;;;18.14;63.85;101106.78;4913136;29;20040;-79
2022/05/09 09:18:09;;;;;;;5.93;2.30;;;;;;;18.54;62.96;101137.88;4913591;29;20408;-79
2022/05/09 09:20:53;;;;;;;5.25;1.90;;;;;;;18.24;60.00;101107.81;4909256;29;20103;-78
2022/05/09 09:23:40;;;;;;;2.65;1.70;;;;;;;18.57;57.69;101137.94;4940024;28;20063;-78
2022/05/09 09:26:20;;;;;;;6.47;2.10;;;;;;;18.63;60.27;101116.22;4973810;28;20059;-74
2022/05/09 09:29:10;;;;;;;6.80;2.15;;;;;;;18.82;61.25;101115.63;4973464;28;20034;-77
2022/05/09 09:31:42;;;;;;;7.25;2.00;;;;;;;19.06;59.74;101129.91;4977467;28;20041;-79
2022/05/09 09:34:34;;;;;;;4.18;2.00;;;;;;;19.17;58.54;101127.44;4983816;28;20030;-78
2022/05/09 09:37:28;;;;;;;10.43;2.00;;;;;;;19.15;59.98;101105.59;4913524;29;20044;-76
2022/05/09 09:39:53;;;;;;;6.63;1.88;;;;;;;19.20;60.22;101089.09;4913700;29;20044;-78
2022/05/09 09:42:18;;;;;;;5.00;1.95;;;;;;;19.37;55.65;101104.09;4913815;29;20036;-77
2022/05/09 09:44:46;;;;;;;4.38;2.13;;;;;;;19.45;59.05;101106.78;4913764;29;20479;-77
2022/05/09 09:47:28;;;;;;;4.70;2.10;;;;;;;19.68;55.63;101101.81;4911394;29;20047;-80
2022/05/09 09:50:17;;;;;;;3.50;2.03;;;;;;;20.01;54.13;101116.09;4913746;29;20384;-79
2022/05/09 09:52:48;;;;;;;6.85;2.40;;;;;;;20.17;51.86;101111.84;4913776;29;20036;-76
2022/05/09 09:55:31;;;;;;;10.13;2.40;;;;;;;20.22;53.75;101110.13;4913640;29;20071;-80
2022/05/09 09:58:18;;;;;;;4.60;2.20;;;;;;;20.04;55.54;101075.06;4913744;29;20103;-78
2022/05/09 10:00:44;;;;;;;5.97;2.80;;;;;;;20.30;51.90;101079.63;4913509;29;20050;-79
2022/05/09 10:03:18;;;;;;;3.50;1.80;;;;;;;20.38;49.96;101068.31;4913104;29;20054;-80
2022/05/09 10:05:45;;;;;;;5.07;2.08;;;;;;;20.44;50.67;101090.19;4913467;29;20032;-76
2022/05/09 10:08:18;;;;;;;5.90;2.20;;;;;;;20.49;53.45;101079.72;4913502;29;20043;-77
2022/05/09 10:11:12;;;;;;;4.85;2.15;;;;;;;20.79;56.39;101096.53;4913683;29;20545;-79
2022/05/09 10:13:45;;;;;;;12.05;2.53;;;;;;;21.05;51.33;101096.63;4902722;29;20052;-77
2022/05/09 10:16:23;;;;;;;7.40;2.75;;;;;;;21.25;49.99;101094.06;4913417;29;20036;-79
2022/05/09 10:18:50;;;;;;;6.50;2.22;;;;;;;21.29;47.33;101059.06;4913092;29;20123;-76
2022/05/09 10:24:47;;;;;;;7.63;2.17;;;;;;;21.56;46.97;101085.41;4913453;29;20028;-77
2022/05/09 10:26:57;;;;;;;7.32;2.08;;;;;;;21.45;46.56;101078.34;4913266;29;20062;-79
2022/05/09 10:29:26;;;;;;;6.90;1.95;;;;;;;21.46;47.63;101077.50;4913135;29;20087;-79
2022/05/09 10:32:00;;;;;;;5.97;1.80;;;;;;;21.53;46.80;101082.75;4913227;29;20498;-79
2022/05/09 10:34:38;;;;;;;5.57;1.90;;;;;;;21.60;46.94;101081.94;4913210;29;20771;-78
2022/05/09 10:37:12;;;;;;;7.18;2.40;;;;;;;21.67;45.79;101072.28;4913130;29;20527;-78
2022/05/09 10:39:42;;;;;;;8.98;2.33;;;;;;;21.70;45.00;101075.78;4913092;29;20475;-78
2022/05/09 10:42:10;;;;;;;3.47;1.77;;;;;;;21.56;44.08;101044.25;4913034;29;20585;-77
2022/05/09 10:44:57;;;;;;;3.55;1.75;;;;;;;21.91;41.23;101074.06;4912904;29;20084;-80
2022/05/09 10:47:30;;;;;;;16.02;2.53;;;;;;;22.08;42.21;101074.94;4912908;29;20483;-79
2022/05/09 10:50:09;;;;;;;5.50;1.88;;;;;;;22.01;40.89;101077.53;4945765;28;20054;-77
2022/05/09 10:53:16;;;;;;;6.23;1.80;;;;;;;22.07;43.64;101067.00;4981217;28;20102;-77
2022/05/09 10:55:57;;;;;;;8.05;1.90;;;;;;;21.94;39.96;101063.53;4911285;29;20841;-75
2022/05/09 10:58:28;;;;;;;9.45;2.10;;;;;;;21.86;42.76;101060.91;4909441;29;20111;-78
2022/05/09 11:01:08;;;;;;;4.00;1.90;;;;;;;21.94;39.84;101053.00;4911403;29;20036;-77
2022/05/09 11:03:35;;;;;;;5.22;1.85;;;;;;;21.78;39.61;101007.47;4910346;29;20467;-79
2022/05/09 11:06:09;;;;;;;3.65;1.63;;;;;;;22.03;35.88;101060.91;4911432;29;20059;-78
2022/05/09 11:08:47;;;;;;;5.05;1.50;;;;;;;22.21;35.03;101052.09;4909272;29;20471;-77
2022/05/09 11:11:25;;;;;;;3.75;1.70;;;;;;;22.41;34.86;101041.56;4911674;29;20127;-78
2022/05/09 11:14:17;;;;;;;2.45;1.67;;;;;;;22.69;35.68;101052.00;4909514;29;20036;-78
2022/05/09 11:17:08;;;;;;;3.42;1.67;;;;;;;22.79;35.86;101013.34;4837038;29;20044;-80
2022/05/09 11:19:39;;;;;;;4.80;1.98;;;;;;;23.23;34.45;101048.25;4835466;29;20079;-77
2022/05/09 11:22:30;;;;;;;6.70;1.88;;;;;;;23.30;36.50;101043.81;4834843;29;20414;-84
2022/05/09 11:25:26;;;;;;;6.22;2.00;;;;;;;23.42;36.51;101047.22;4836420;29;20045;-78
2022/05/09 11:28:16;;;;;;;5.00;1.38;;;;;;;23.47;35.41;101038.44;4837602;29;20049;-79
2022/05/09 11:31:03;;;;;;;5.82;1.40;;;;;;;23.20;35.06;101008.75;4836576;29;20042;-77
2022/05/09 11:33:56;;;;;;;6.95;1.90;;;;;;;23.46;37.35;101036.69;4881888;29;20627;-75
2022/05/09 11:36:36;;;;;;;7.30;1.70;;;;;;;23.50;37.12;101027.84;4884041;29;20039;-77
2022/05/09 11:39:11;;;;;;;8.45;1.90;;;;;;;23.61;40.16;101018.09;4880064;29;20033;-81